Terminal Aerodrome Forecast
Issued by NWS

Home | Current Version | Previous Version | Text Only | Print | Product List | Glossary On
Versions: 1 2 3 4 5 6 7 8 9 10 11 12 13 14 15 16 17 18 19
000
FTUS45 KSLC 232340
TAFOGD
TAF
KOGD 232340Z 2400/2424 28008KT P6SM SCT070 SCT120
     FM240300 17007KT P6SM SCT070 SCT120
     FM241900 27007KT P6SM SCT070 BKN120=

USA.gov is the U.S. government's official web portal to all federal, state and local government web resources and services.